Cozumel, Mexico

2:23 AM EST on September 29, 2016 (GMT -0500)
APRSWXNET | | Change Station

Elev 36 ft 20.51 °N, 86.93 °W | Updated 25 minutes ago

Partly Cloudy
Partly Cloudy
78 °F
Feels Like 81 °F
N
5
Wind Variable Wind from ESE
Gusts 10.0 mph

Today
High -- | Low -- °F
--% Chance of Precip.
Yesterday
High -- | Low -- °F
Precip. -- in
Pressure 30.02 in
Visibility 7.0 miles
Clouds Few 1500 ft
Heat Index 81 °F
Dew Point 75 °F
Humidity 91%
Rainfall in
Snow Depth Not available.
6:38 AM 6:36 PM
Waning Crescent, 3% visible
METAR MMUN 290644Z 10005KT 7SM FEW015 27/25 A3002 RMK 8/500
Pressure 30.02 in
Visibility 7.0 miles
Clouds Few 1500 ft
Heat Index 81 °F
Dew Point 75 °F
Humidity 91%
Rainfall in
Snow Depth Not available.
6:38 AM 6:36 PM
Waning Crescent, 3% visible
METAR MMUN 290644Z 10005KT 7SM FEW015 27/25 A3002 RMK 8/500

10-Day Weather Forecast

No radar image for this location.
×

Almanac

Astronomy

Sep. 29, 2016 Rise Set
Actual Time
Civil Twilight
Nautical Twilight
Astronomical Twilight
Moon
Length of Visible Light
Length of Day
Tomorrow will be .
, % of the Moon is Illuminated

Today's Extremes

Country Highs Country Lows

Community

WunderPhotos

Upload Photos

1,942,446 photos uploaded!

WunderBlog® & News

Nearby

Air Quality

  Air Quality AQ Index Pollutant
Not available.

Snow Depth

Station Depth Elevation

Earthquake Activity

City Distance Mag. Time & Date
Minimum magnitude displayed is 2.5.

Coastal Water Temperatures

Place Temperature

Stations

Nearby Weather Stations

Station Location Temp. Windchill Dew Point Humidity Wind Precip. Elev Updated Type